Time;durP1;ratioP1;P1;durP2;ratioP2;P2;SDS_P1;SDS_P2;PMS_P1;PMS_P2;Temp;Humidity;BMP_temperature;BMP_pressure;BME280_temperature;BME280_humidity;BME280_pressure;Samples;Min_cycle;Max_cycle;Signal;HPM_P1;HPM_P2
2023/11/19 00:00:26;;;;;;;3.47;3.15;;;;;;;1.05;100.00;92967.19;5069932;28;20044;-77
2023/11/19 00:02:53;;;;;;;3.47;3.17;;;;;;;1.03;100.00;92974.94;5080705;28;20052;-76
2023/11/19 00:05:21;;;;;;;3.70;3.10;;;;;;;0.95;100.00;92972.41;5084500;28;20413;-77
2023/11/19 00:07:48;;;;;;;3.33;3.03;;;;;;;0.97;100.00;92975.56;5080926;28;20052;-77
2023/11/19 00:10:18;;;;;;;3.83;3.25;;;;;;;0.96;100.00;92980.81;5079312;28;20048;-78
2023/11/19 00:12:46;;;;;;;3.40;2.70;;;;;;;1.00;100.00;92982.84;5069036;28;20063;-77
2023/11/19 00:15:13;;;;;;;4.28;3.47;;;;;;;1.06;100.00;93004.19;5073203;28;20048;-77
2023/11/19 00:17:44;;;;;;;3.42;3.03;;;;;;;1.00;100.00;92990.44;5081175;28;20044;-77
2023/11/19 00:20:11;;;;;;;3.60;2.92;;;;;;;1.02;100.00;92993.59;5085507;28;20076;-77
2023/11/19 00:22:40;;;;;;;4.20;3.13;;;;;;;1.06;100.00;92979.69;5083826;28;20051;-76
2023/11/19 00:25:08;;;;;;;3.78;2.83;;;;;;;1.11;100.00;92986.03;5076207;28;20052;-77
2023/11/19 00:27:35;;;;;;;3.20;2.90;;;;;;;1.13;100.00;92990.00;5069495;28;20056;-77
2023/11/19 00:30:05;;;;;;;4.10;2.80;;;;;;;1.21;100.00;92991.75;5070569;28;20053;-77
2023/11/19 00:32:32;;;;;;;3.83;3.42;;;;;;;1.10;100.00;92995.34;5070393;28;20101;-77
2023/11/19 00:34:58;;;;;;;4.40;3.92;;;;;;;1.25;100.00;93003.09;5083737;28;20051;-77
2023/11/19 00:37:25;;;;;;;3.47;3.08;;;;;;;1.27;100.00;93002.94;5068784;28;20052;-78
2023/11/19 00:39:55;;;;;;;3.97;3.38;;;;;;;1.14;100.00;92995.81;5068427;28;20056;-77
2023/11/19 00:42:23;;;;;;;4.55;3.20;;;;;;;1.20;100.00;93000.25;5069119;28;20048;-77
2023/11/19 00:44:49;;;;;;;3.88;3.47;;;;;;;1.36;100.00;93006.28;5071922;28;20052;-77
2023/11/19 00:47:16;;;;;;;4.10;3.30;;;;;;;1.24;100.00;93013.41;5068891;28;20052;-76
2023/11/19 00:49:43;;;;;;;4.20;3.28;;;;;;;1.26;100.00;93007.25;5068288;28;20044;-77
2023/11/19 00:52:10;;;;;;;4.05;3.10;;;;;;;1.24;100.00;93009.13;5069368;28;20048;-77
2023/11/19 00:54:37;;;;;;;4.57;3.42;;;;;;;1.10;100.00;92990.28;5070739;28;20055;-77
2023/11/19 00:57:05;;;;;;;3.83;3.42;;;;;;;1.22;100.00;93023.69;5082031;28;20098;-77
2023/11/19 00:59:32;;;;;;;3.65;3.25;;;;;;;1.19;100.00;93003.72;5075151;28;20497;-77
2023/11/19 01:02:02;;;;;;;3.70;3.30;;;;;;;1.25;100.00;93005.63;5068242;28;20051;-77
2023/11/19 01:04:29;;;;;;;4.72;3.50;;;;;;;1.27;100.00;93016.41;5067928;28;20180;-77
2023/11/19 01:06:56;;;;;;;3.70;3.17;;;;;;;1.24;100.00;93021.78;5072578;28;20044;-77
2023/11/19 01:09:24;;;;;;;3.88;3.10;;;;;;;1.25;100.00;93010.69;5081131;28;20044;-77
2023/11/19 01:11:51;;;;;;;3.45;3.13;;;;;;;1.31;100.00;93012.59;5067244;28;20452;-77
2023/11/19 01:14:19;;;;;;;3.60;3.08;;;;;;;1.27;100.00;93010.53;5071875;28;20052;-77
2023/11/19 01:16:46;;;;;;;3.35;2.60;;;;;;;1.30;100.00;93022.91;5069105;28;20079;-77
2023/11/19 01:19:13;;;;;;;3.72;2.80;;;;;;;1.33;100.00;93013.25;5067774;28;20063;-77
2023/11/19 01:21:40;;;;;;;3.72;3.00;;;;;;;1.33;100.00;93004.84;5075344;28;20184;-77
2023/11/19 01:24:09;;;;;;;3.55;3.10;;;;;;;1.24;100.00;92991.41;5067577;28;20055;-77
2023/11/19 01:26:36;;;;;;;4.13;3.10;;;;;;;1.10;100.00;92971.81;5068002;28;20049;-77
2023/11/19 01:29:04;;;;;;;5.00;3.15;;;;;;;1.32;100.00;93021.00;5067745;28;20045;-77
2023/11/19 01:31:33;;;;;;;4.07;2.90;;;;;;;1.28;100.00;93017.19;5067420;28;20073;-77
2023/11/19 01:34:00;;;;;;;3.53;2.90;;;;;;;1.39;100.00;93018.63;5071958;28;20056;-78
2023/11/19 01:36:28;;;;;;;3.58;2.90;;;;;;;1.35;100.00;93024.94;5067997;28;20040;-77
2023/11/19 01:38:54;;;;;;;4.28;2.95;;;;;;;1.36;100.00;93024.00;5071501;28;20060;-77
2023/11/19 01:41:21;;;;;;;3.42;3.10;;;;;;;1.44;100.00;93029.84;5068134;28;20044;-77
2023/11/19 01:43:48;;;;;;;4.70;3.08;;;;;;;1.36;100.00;93022.25;5068141;28;20048;-77
2023/11/19 01:46:15;;;;;;;5.65;3.30;;;;;;;1.41;100.00;93037.78;5067663;28;20045;-77
2023/11/19 01:48:46;;;;;;;3.92;3.10;;;;;;;1.19;100.00;93029.03;5067191;28;20056;-77
2023/11/19 01:51:16;;;;;;;4.28;3.15;;;;;;;1.35;100.00;93047.72;5085555;28;20501;-77
2023/11/19 01:53:44;;;;;;;4.53;3.60;;;;;;;1.42;100.00;93053.72;5078675;28;20497;-77
2023/11/19 01:56:14;;;;;;;5.22;3.42;;;;;;;1.54;100.00;93054.22;5068136;28;20044;-77
2023/11/19 01:58:42;;;;;;;6.22;3.65;;;;;;;1.52;100.00;93035.88;5067885;28;20090;-77
2023/11/19 02:01:11;;;;;;;4.68;3.38;;;;;;;1.59;100.00;93040.13;5067069;28;20040;-77
2023/11/19 02:03:38;;;;;;;5.93;3.22;;;;;;;1.51;100.00;93034.28;5067388;28;20129;-77
2023/11/19 02:06:10;;;;;;;5.18;3.83;;;;;;;1.68;100.00;93040.94;5081698;28;20063;-77
2023/11/19 02:08:37;;;;;;;3.75;2.67;;;;;;;1.67;100.00;93036.03;5078870;28;20055;-77
2023/11/19 02:11:04;;;;;;;3.42;3.00;;;;;;;1.60;100.00;93041.72;5068222;28;20052;-77
2023/11/19 02:13:31;;;;;;;3.67;3.10;;;;;;;1.39;100.00;93033.81;5072052;28;20131;-77
2023/11/19 02:15:59;;;;;;;4.95;3.53;;;;;;;1.42;100.00;93039.34;5067331;28;20048;-77
2023/11/19 02:18:28;;;;;;;3.67;3.22;;;;;;;1.42;100.00;93033.47;5066525;28;20683;-77
2023/11/19 02:20:56;;;;;;;5.15;3.30;;;;;;;1.39;100.00;93006.75;5067101;28;20060;-76
2023/11/19 02:23:25;;;;;;;6.97;4.45;;;;;;;1.63;100.00;93038.09;5070871;28;20056;-78
2023/11/19 02:26:05;;;;;;;6.93;4.72;;;;;;;1.52;100.00;93020.69;5073623;28;20063;-77
2023/11/19 02:28:34;;;;;;;5.78;3.83;;;;;;;1.51;100.00;93032.53;5071866;28;20052;-76
2023/11/19 02:31:01;;;;;;;4.43;3.25;;;;;;;1.65;100.00;93031.13;5071207;28;20048;-75
2023/11/19 02:33:28;;;;;;;6.50;4.05;;;;;;;1.80;100.00;93033.78;5071592;28;20123;-75
2023/11/19 02:35:54;;;;;;;3.72;3.30;;;;;;;1.80;100.00;93027.94;5070698;28;20127;-74
2023/11/19 02:38:21;;;;;;;5.78;3.17;;;;;;;1.91;100.00;93031.88;5073112;28;20056;-74
2023/11/19 02:40:49;;;;;;;4.22;3.10;;;;;;;1.94;100.00;93017.16;5071194;28;20125;-74
2023/11/19 02:43:15;;;;;;;4.03;2.70;;;;;;;1.73;100.00;93020.19;5078613;28;20040;-74
2023/11/19 02:45:45;;;;;;;3.97;2.90;;;;;;;1.67;100.00;93023.38;5075419;28;20044;-77
2023/11/19 02:48:14;;;;;;;4.32;3.08;;;;;;;1.77;100.00;93033.31;5077912;28;20060;-75
2023/11/19 02:50:41;;;;;;;3.75;3.05;;;;;;;1.64;100.00;93033.81;5070640;28;20139;-75
2023/11/19 02:53:08;;;;;;;3.78;2.72;;;;;;;1.52;100.00;93034.13;5070920;28;20048;-76
2023/11/19 02:55:37;;;;;;;5.07;3.75;;;;;;;1.65;100.00;93028.59;5070982;28;20071;-75
2023/11/19 02:58:09;;;;;;;4.82;3.58;;;;;;;1.70;100.00;93033.97;5074850;28;20048;-75
2023/11/19 03:00:41;;;;;;;4.55;3.88;;;;;;;1.72;100.00;93024.44;5074382;28;20722;-76
2023/11/19 03:03:19;;;;;;;5.07;3.63;;;;;;;1.46;100.00;93037.28;5080350;28;20102;-75
2023/11/19 03:05:47;;;;;;;4.47;3.00;;;;;;;1.02;100.00;93029.00;5080405;28;20044;-75
2023/11/19 03:08:15;;;;;;;3.40;2.75;;;;;;;1.05;100.00;93038.84;5073414;28;20409;-75
2023/11/19 03:10:42;;;;;;;5.32;3.83;;;;;;;1.05;100.00;93040.56;5079145;28;20044;-76
2023/11/19 03:13:13;;;;;;;6.97;3.70;;;;;;;1.02;100.00;93043.41;5080345;28;20055;-75
2023/11/19 03:15:40;;;;;;;6.20;3.05;;;;;;;1.04;100.00;93041.50;5068766;28;20553;-75
2023/11/19 03:18:07;;;;;;;7.07;4.40;;;;;;;1.05;100.00;93046.41;5070633;28;20079;-75
2023/11/19 03:20:35;;;;;;;5.80;4.00;;;;;;;1.19;100.00;93041.69;5072633;28;20286;-75
2023/11/19 03:23:02;;;;;;;4.72;3.63;;;;;;;1.08;100.00;93001.50;5076941;28;20059;-75
2023/11/19 03:25:33;;;;;;;7.82;4.03;;;;;;;1.45;100.00;93044.06;5070078;28;20056;-75
2023/11/19 03:28:01;;;;;;;4.72;3.63;;;;;;;1.40;100.00;93045.50;5069875;28;20076;-76
2023/11/19 03:30:28;;;;;;;5.70;3.58;;;;;;;1.45;100.00;93040.78;5070244;28;20094;-75
2023/11/19 03:32:55;;;;;;;5.45;3.85;;;;;;;1.58;100.00;93030.19;5072959;28;20458;-75
2023/11/19 03:35:22;;;;;;;5.60;3.75;;;;;;;1.65;100.00;93040.44;5070207;28;20430;-75
2023/11/19 03:37:51;;;;;;;9.63;5.68;;;;;;;1.68;100.00;93052.78;5075849;28;20502;-75
2023/11/19 03:40:18;;;;;;;9.30;5.10;;;;;;;1.71;100.00;93055.03;5076960;28;20048;-75
2023/11/19 03:42:45;;;;;;;12.55;5.00;;;;;;;1.46;100.00;93060.06;5069156;28;20071;-76
2023/11/19 03:45:13;;;;;;;10.02;4.53;;;;;;;1.58;100.00;93066.41;5075144;28;20044;-75
2023/11/19 03:47:39;;;;;;;7.88;3.78;;;;;;;1.59;100.00;93070.50;5075799;28;20494;-75
2023/11/19 03:50:08;;;;;;;5.53;3.80;;;;;;;1.49;100.00;93074.16;5074631;28;20051;-75
2023/11/19 03:52:37;;;;;;;4.50;3.67;;;;;;;1.17;100.00;93084.84;5074298;28;20045;-75
2023/11/19 03:55:08;;;;;;;4.28;2.90;;;;;;;1.12;100.00;93076.16;5077526;28;20055;-75
2023/11/19 03:57:35;;;;;;;4.32;3.22;;;;;;;1.26;100.00;93090.75;5077315;28;20059;-75
2023/11/19 04:00:07;;;;;;;3.42;3.10;;;;;;;0.87;100.00;93059.19;5078423;28;20489;-75
2023/11/19 04:02:36;;;;;;;3.45;3.00;;;;;;;0.96;100.00;93074.38;5086658;28;20056;-75
2023/11/19 04:05:03;;;;;;;3.80;3.10;;;;;;;0.94;100.00;93089.72;5081991;28;20044;-75
2023/11/19 04:07:29;;;;;;;4.78;3.80;;;;;;;0.98;100.00;93078.34;5077128;28;21130;-75
2023/11/19 04:09:56;;;;;;;5.20;3.50;;;;;;;1.04;100.00;93085.31;5074533;28;20044;-75
2023/11/19 04:12:25;;;;;;;4.35;3.55;;;;;;;0.94;100.00;93094.78;5069184;28;20052;-75
2023/11/19 04:14:51;;;;;;;4.85;3.90;;;;;;;0.96;100.00;93092.09;5072852;28;20422;-75
2023/11/19 04:17:18;;;;;;;4.43;3.17;;;;;;;0.86;100.00;93104.84;5076508;28;20040;-75
2023/11/19 04:19:45;;;;;;;4.30;3.47;;;;;;;0.82;100.00;93106.88;5070069;28;20418;-75
2023/11/19 04:22:12;;;;;;;4.30;3.33;;;;;;;0.94;100.00;93107.41;5068461;28;20055;-75
2023/11/19 04:24:40;;;;;;;5.38;3.53;;;;;;;1.07;100.00;93104.47;5069723;28;20053;-74
2023/11/19 04:27:07;;;;;;;6.28;3.45;;;;;;;1.11;100.00;93110.00;5072543;28;20060;-75
2023/11/19 04:29:36;;;;;;;4.97;3.47;;;;;;;1.04;100.00;93105.56;5078091;28;20059;-75
2023/11/19 04:32:02;;;;;;;5.53;3.83;;;;;;;1.00;100.00;93096.69;5070666;28;20126;-75
2023/11/19 04:34:29;;;;;;;5.45;3.47;;;;;;;1.17;100.00;93110.16;5078119;28;20055;-75
2023/11/19 04:36:56;;;;;;;7.22;3.80;;;;;;;1.17;100.00;93106.84;5070052;28;20049;-75
2023/11/19 04:39:23;;;;;;;6.40;3.92;;;;;;;1.15;100.00;93121.41;5070247;28;20053;-76
2023/11/19 04:41:52;;;;;;;4.95;3.70;;;;;;;1.24;100.00;93117.16;5068711;28;20041;-75
2023/11/19 04:44:18;;;;;;;10.07;5.07;;;;;;;1.33;100.00;93106.06;5068962;28;20052;-75
2023/11/19 04:46:47;;;;;;;8.50;4.07;;;;;;;1.44;100.00;93103.25;5077234;28;20075;-75
2023/11/19 04:49:14;;;;;;;7.53;3.97;;;;;;;1.23;100.00;93078.38;5071199;28;20484;-76
2023/11/19 04:51:42;;;;;;;6.40;4.45;;;;;;;1.45;100.00;93109.13;5068734;28;20048;-75
2023/11/19 04:54:09;;;;;;;6.10;4.25;;;;;;;1.31;100.00;93108.75;5068076;28;20093;-76
2023/11/19 04:56:37;;;;;;;8.23;4.07;;;;;;;1.27;100.00;93104.16;5068073;28;20044;-75
2023/11/19 04:59:05;;;;;;;9.27;5.18;;;;;;;1.32;100.00;93107.03;5079758;28;20098;-76
2023/11/19 05:01:33;;;;;;;9.75;4.82;;;;;;;1.29;100.00;93097.22;5076286;28;20049;-76
2023/11/19 05:04:01;;;;;;;10.50;5.70;;;;;;;1.52;100.00;93127.00;5068720;28;20056;-76
2023/11/19 05:06:29;;;;;;;13.80;4.60;;;;;;;1.30;100.00;93122.38;5068770;28;20067;-76
2023/11/19 05:08:56;;;;;;;6.72;3.70;;;;;;;1.00;100.00;93109.31;5067916;28;20048;-75
2023/11/19 05:11:23;;;;;;;9.68;4.75;;;;;;;1.18;100.00;93139.59;5071305;28;20524;-76
2023/11/19 05:13:50;;;;;;;6.20;3.60;;;;;;;1.09;100.00;93130.38;5068569;28;20962;-76
2023/11/19 05:16:17;;;;;;;8.95;5.05;;;;;;;0.97;100.00;93126.56;5068051;28;20475;-75
2023/11/19 05:18:44;;;;;;;10.27;4.72;;;;;;;0.95;100.00;93134.28;5079740;28;20044;-75
2023/11/19 05:21:13;;;;;;;9.48;4.32;;;;;;;0.79;100.00;93114.78;5068222;28;20072;-75
2023/11/19 05:23:41;;;;;;;7.40;4.30;;;;;;;1.11;100.00;93140.34;5068646;28;20052;-75
2023/11/19 05:26:10;;;;;;;5.82;3.80;;;;;;;1.11;100.00;93127.69;5067560;28;20452;-75
2023/11/19 05:28:39;;;;;;;7.10;4.70;;;;;;;1.29;100.00;93138.50;5070177;28;20048;-76
2023/11/19 05:31:06;;;;;;;9.88;4.80;;;;;;;1.14;100.00;93132.44;5070230;28;20044;-76
2023/11/19 05:33:33;;;;;;;8.23;4.72;;;;;;;0.97;100.00;93141.72;5067772;28;20049;-76
2023/11/19 05:35:59;;;;;;;9.63;4.78;;;;;;;0.98;100.00;93141.59;5068018;28;20052;-75
2023/11/19 05:38:28;;;;;;;9.07;4.85;;;;;;;0.90;100.00;93141.53;5069339;28;20045;-76
2023/11/19 05:40:55;;;;;;;10.30;4.95;;;;;;;1.02;100.00;93130.19;5070786;28;20789;-75
2023/11/19 05:43:22;;;;;;;4.97;3.55;;;;;;;0.85;100.00;93136.94;5068351;28;20055;-75
2023/11/19 05:45:49;;;;;;;7.25;3.92;;;;;;;0.83;100.00;93123.63;5068286;28;20049;-76
2023/11/19 05:48:16;;;;;;;4.72;3.78;;;;;;;0.71;100.00;93143.34;5068153;28;20044;-76
2023/11/19 05:50:43;;;;;;;4.75;3.38;;;;;;;0.45;100.00;93129.00;5071617;28;20044;-76
2023/11/19 05:53:13;;;;;;;4.88;3.78;;;;;;;0.46;100.00;93139.91;5067587;28;20048;-76
2023/11/19 05:55:48;;;;;;;5.03;3.75;;;;;;;0.44;100.00;93142.59;5069373;28;20084;-76
2023/11/19 05:58:15;;;;;;;6.63;4.15;;;;;;;0.54;100.00;93139.94;5085807;28;20043;-76
2023/11/19 06:00:42;;;;;;;4.65;3.40;;;;;;;0.38;100.00;93140.66;5067740;28;20053;-76
2023/11/19 06:03:09;;;;;;;5.75;5.18;;;;;;;0.48;100.00;93158.22;5070105;28;20067;-75
2023/11/19 06:05:36;;;;;;;5.85;3.85;;;;;;;0.60;100.00;93167.16;5067659;28;20067;-77
2023/11/19 06:08:03;;;;;;;7.32;5.22;;;;;;;0.62;100.00;93177.13;5078318;28;20055;-77
2023/11/19 06:10:31;;;;;;;6.65;4.85;;;;;;;0.51;100.00;93180.69;5071728;28;20056;-77
2023/11/19 06:13:00;;;;;;;6.13;4.80;;;;;;;0.33;100.00;93173.16;5067275;28;20048;-76
2023/11/19 06:15:27;;;;;;;6.03;4.72;;;;;;;0.39;100.00;93163.25;5068688;28;20642;-77
2023/11/19 06:17:54;;;;;;;5.43;4.07;;;;;;;0.36;100.00;93163.53;5073470;28;20156;-76
2023/11/19 06:20:21;;;;;;;7.35;5.80;;;;;;;0.41;100.00;93163.09;5084680;28;20048;-76
2023/11/19 06:22:48;;;;;;;5.93;4.93;;;;;;;0.48;100.00;93164.09;5066864;28;20045;-76
2023/11/19 06:25:15;;;;;;;7.03;5.35;;;;;;;0.38;100.00;93145.72;5068486;28;20052;-75
2023/11/19 06:27:43;;;;;;;5.88;4.55;;;;;;;0.56;100.00;93160.03;5068814;28;20087;-76
2023/11/19 06:30:12;;;;;;;13.75;6.82;;;;;;;0.35;100.00;93166.19;5072854;28;20055;-75
2023/11/19 06:32:39;;;;;;;9.95;5.78;;;;;;;0.17;100.00;93135.91;5067577;28;20096;-75
2023/11/19 06:35:07;;;;;;;6.82;4.45;;;;;;;0.37;100.00;93156.75;5079468;28;20063;-76
2023/11/19 06:37:34;;;;;;;9.30;5.18;;;;;;;0.26;100.00;93170.41;5081171;28;20054;-75
2023/11/19 06:40:01;;;;;;;13.02;6.68;;;;;;;0.23;100.00;93179.06;5068651;28;20528;-75
2023/11/19 06:42:28;;;;;;;14.75;7.30;;;;;;;0.18;100.00;93171.16;5067764;28;20056;-76
2023/11/19 06:44:57;;;;;;;14.50;6.60;;;;;;;0.24;100.00;93177.34;5070090;28;20071;-76
2023/11/19 06:47:26;;;;;;;7.47;4.90;;;;;;;0.24;100.00;93168.03;5078353;28;20055;-76
2023/11/19 06:49:53;;;;;;;7.97;5.22;;;;;;;0.19;100.00;93169.44;5072097;28;20134;-76
2023/11/19 06:52:20;;;;;;;7.72;5.35;;;;;;;-0.05;100.00;93133.72;5068592;28;20051;-76
2023/11/19 06:54:47;;;;;;;7.18;4.63;;;;;;;0.19;100.00;93166.91;5071491;28;20059;-76
2023/11/19 06:57:14;;;;;;;6.70;5.00;;;;;;;0.16;100.00;93170.50;5066724;28;20060;-76
2023/11/19 06:59:41;;;;;;;9.13;5.78;;;;;;;0.34;100.00;93173.00;5073169;28;20509;-76
2023/11/19 07:02:08;;;;;;;6.32;4.80;;;;;;;0.52;100.00;93183.06;5068954;28;20048;-76
2023/11/19 07:04:36;;;;;;;10.82;6.30;;;;;;;0.60;100.00;93174.72;5071998;28;20474;-76
2023/11/19 07:07:05;;;;;;;7.63;5.03;;;;;;;0.44;100.00;93165.31;5072455;28;20055;-76
2023/11/19 07:09:32;;;;;;;5.97;4.45;;;;;;;0.45;100.00;93194.69;5071081;28;20135;-76
2023/11/19 07:11:59;;;;;;;9.70;6.43;;;;;;;0.42;100.00;93194.22;5073438;28;20063;-76
2023/11/19 07:14:26;;;;;;;11.63;6.85;;;;;;;0.02;100.00;93168.50;5076839;28;20524;-76
2023/11/19 07:16:55;;;;;;;12.98;6.53;;;;;;;0.03;100.00;93170.88;5076173;28;20060;-76
2023/11/19 07:19:22;;;;;;;7.15;4.85;;;;;;;0.02;100.00;93181.94;5076976;28;20117;-76
2023/11/19 07:21:50;;;;;;;9.25;6.70;;;;;;;0.02;100.00;93178.59;5081439;28;20051;-76
2023/11/19 07:24:17;;;;;;;12.32;8.25;;;;;;;0.18;100.00;93183.00;5070049;28;20545;-76
2023/11/19 07:26:45;;;;;;;7.18;5.30;;;;;;;0.02;100.00;93183.66;5078135;28;20055;-76
2023/11/19 07:29:12;;;;;;;13.15;7.50;;;;;;;0.03;100.00;93182.69;5088107;28;20114;-76
2023/11/19 07:31:39;;;;;;;11.60;7.57;;;;;;;0.24;100.00;93208.44;5074134;28;20102;-76
2023/11/19 07:34:06;;;;;;;8.65;5.93;;;;;;;0.12;100.00;93214.66;5071816;28;20536;-76
2023/11/19 07:36:33;;;;;;;7.78;5.80;;;;;;;-0.21;100.00;93186.63;5072473;28;20055;-75
2023/11/19 07:39:02;;;;;;;9.80;7.30;;;;;;;0.04;100.00;93214.63;5073010;28;20044;-76
2023/11/19 07:41:29;;;;;;;12.70;7.13;;;;;;;-0.13;100.00;93181.66;5074347;28;20063;-76
2023/11/19 07:43:56;;;;;;;8.35;6.10;;;;;;;0.09;100.00;93218.28;5072483;28;20418;-76
2023/11/19 07:46:23;;;;;;;9.55;6.05;;;;;;;0.28;100.00;93206.44;5071216;28;20064;-77
2023/11/19 07:48:49;;;;;;;9.82;6.28;;;;;;;0.12;100.00;93169.22;5071801;28;20370;-77
2023/11/19 07:51:16;;;;;;;5.55;4.35;;;;;;;0.18;100.00;93210.78;5074175;28;20055;-77
2023/11/19 07:53:43;;;;;;;6.22;4.82;;;;;;;0.20;100.00;93216.47;5072244;28;20047;-76
2023/11/19 07:56:11;;;;;;;5.72;4.68;;;;;;;0.16;100.00;93215.16;5071961;28;20051;-76
2023/11/19 07:58:38;;;;;;;6.97;5.18;;;;;;;0.10;100.00;93204.72;5071276;28;20056;-76
2023/11/19 08:01:06;;;;;;;11.23;6.07;;;;;;;0.00;100.00;93173.72;5081045;28;20549;-76
2023/11/19 08:03:34;;;;;;;9.43;6.35;;;;;;;0.29;100.00;93208.03;5073202;28;20051;-76
2023/11/19 08:06:01;;;;;;;6.65;5.20;;;;;;;0.30;100.00;93218.91;5070669;28;20052;-76
2023/11/19 08:08:26;;;;;;;7.07;5.35;;;;;;;0.35;100.00;93219.25;5069824;28;20056;-77
2023/11/19 08:10:55;;;;;;;6.93;5.75;;;;;;;0.45;100.00;93229.28;5069575;28;20532;-76
2023/11/19 08:13:23;;;;;;;7.85;5.45;;;;;;;0.37;100.00;93214.88;5071315;28;20051;-76
2023/11/19 08:15:50;;;;;;;8.02;6.43;;;;;;;0.58;100.00;93229.72;5071548;28;20055;-76
2023/11/19 08:18:18;;;;;;;14.00;9.88;;;;;;;0.61;100.00;93231.91;5087546;28;20093;-76
2023/11/19 08:20:45;;;;;;;9.88;7.22;;;;;;;0.53;100.00;93242.78;5087649;28;20497;-76
2023/11/19 08:23:13;;;;;;;8.45;6.95;;;;;;;0.26;100.00;93224.28;5074925;28;20059;-76
2023/11/19 08:25:39;;;;;;;6.05;5.07;;;;;;;0.27;100.00;93230.09;5068871;28;20418;-76
2023/11/19 08:28:06;;;;;;;12.07;7.97;;;;;;;0.32;100.00;93225.41;5086008;28;20048;-76
2023/11/19 08:30:34;;;;;;;10.75;7.72;;;;;;;0.32;100.00;93230.47;5087143;28;20129;-76
2023/11/19 08:33:02;;;;;;;7.80;6.05;;;;;;;0.23;100.00;93213.66;5071888;28;20414;-76
2023/11/19 08:35:29;;;;;;;6.30;5.10;;;;;;;0.34;100.00;93228.59;5069997;28;20044;-76
2023/11/19 08:37:57;;;;;;;7.65;4.93;;;;;;;0.42;100.00;93232.13;5070014;28;20048;-76
2023/11/19 08:40:25;;;;;;;9.25;6.50;;;;;;;0.42;100.00;93232.13;5068715;28;20057;-76
2023/11/19 08:42:51;;;;;;;7.05;5.45;;;;;;;0.36;100.00;93251.97;5070960;28;20143;-77
2023/11/19 08:45:18;;;;;;;7.05;4.95;;;;;;;0.36;100.00;93221.66;5068562;28;20067;-77
2023/11/19 08:47:46;;;;;;;9.73;5.70;;;;;;;0.63;100.00;93262.13;5068411;28;20060;-76
2023/11/19 08:50:13;;;;;;;13.35;7.82;;;;;;;0.69;100.00;93250.63;5068628;28;20482;-77
2023/11/19 08:52:40;;;;;;;16.92;7.70;;;;;;;0.89;100.00;93261.34;5072329;28;20052;-76
2023/11/19 08:55:09;;;;;;;10.40;6.65;;;;;;;0.96;100.00;93256.50;5072033;28;20059;-76
2023/11/19 08:57:36;;;;;;;9.45;5.60;;;;;;;0.96;100.00;93264.84;5070135;28;20132;-76
2023/11/19 09:00:04;;;;;;;7.47;4.95;;;;;;;0.90;100.00;93257.88;5080551;28;20040;-76
2023/11/19 09:02:32;;;;;;;8.80;5.95;;;;;;;0.95;100.00;93252.34;5073382;28;20056;-76
2023/11/19 09:05:00;;;;;;;17.58;8.38;;;;;;;0.98;100.00;93262.19;5081807;28;20047;-76
2023/11/19 09:07:27;;;;;;;12.98;6.75;;;;;;;0.90;100.00;93267.97;5068028;28;20063;-76
2023/11/19 09:09:54;;;;;;;10.60;6.15;;;;;;;0.92;100.00;93261.03;5070066;28;20121;-76
2023/11/19 09:12:21;;;;;;;8.15;5.20;;;;;;;0.98;100.00;93250.34;5071349;28;20044;-76
2023/11/19 09:14:49;;;;;;;12.35;6.97;;;;;;;1.24;100.00;93252.03;5085798;28;20413;-76
2023/11/19 09:17:17;;;;;;;8.35;6.07;;;;;;;1.24;100.00;93253.78;5070545;28;20559;-76
2023/11/19 09:19:44;;;;;;;6.00;4.22;;;;;;;1.04;100.00;93254.00;5067982;28;20597;-77
2023/11/19 09:22:12;;;;;;;8.35;5.85;;;;;;;0.88;100.00;93254.72;5067924;28;20059;-76
2023/11/19 09:24:39;;;;;;;9.60;7.10;;;;;;;0.94;100.00;93261.69;5067603;28;20826;-76
2023/11/19 09:27:06;;;;;;;9.00;7.20;;;;;;;0.81;100.00;93262.09;5067990;28;20048;-76
2023/11/19 09:29:33;;;;;;;13.07;8.13;;;;;;;0.96;100.00;93267.38;5067750;28;20049;-76
2023/11/19 09:32:00;;;;;;;6.68;4.93;;;;;;;1.22;100.00;93263.25;5067404;28;20052;-76
2023/11/19 09:34:27;;;;;;;9.57;6.63;;;;;;;1.04;100.00;93254.81;5082631;28;20059;-76
2023/11/19 09:36:54;;;;;;;6.72;4.05;;;;;;;1.09;100.00;93249.28;5067344;28;20055;-76
2023/11/19 09:39:22;;;;;;;6.53;4.78;;;;;;;1.27;100.00;93228.16;5071980;28;20056;-76
2023/11/19 09:41:49;;;;;;;6.18;4.40;;;;;;;1.31;100.00;93219.34;5075648;28;20044;-76
2023/11/19 09:44:18;;;;;;;7.70;4.32;;;;;;;1.30;100.00;93205.09;5081612;28;20059;-76
2023/11/19 09:46:46;;;;;;;5.55;3.90;;;;;;;1.18;100.00;93195.25;5068607;28;20147;-76
2023/11/19 09:49:14;;;;;;;5.47;4.18;;;;;;;1.44;100.00;93189.31;5071789;28;20441;-76
2023/11/19 09:51:41;;;;;;;7.38;4.22;;;;;;;1.62;100.00;93175.75;5068051;28;20055;-76
2023/11/19 09:54:09;;;;;;;6.43;4.63;;;;;;;1.70;100.00;93180.03;5069214;28;20049;-76
2023/11/19 09:56:40;;;;;;;5.47;3.95;;;;;;;1.55;100.00;93145.22;5069763;28;20044;-76
2023/11/19 09:59:06;;;;;;;6.85;4.63;;;;;;;1.97;100.00;93185.75;5074631;28;20052;-76
2023/11/19 10:01:35;;;;;;;5.72;3.10;;;;;;;1.98;100.00;93192.41;5069974;28;20407;-76
2023/11/19 10:04:02;;;;;;;8.45;4.65;;;;;;;2.19;100.00;93181.81;5067752;28;20075;-76
2023/11/19 10:06:31;;;;;;;6.20;3.38;;;;;;;2.23;98.65;93195.75;5075892;28;20075;-76
2023/11/19 10:08:59;;;;;;;10.73;6.03;;;;;;;2.19;97.33;93198.75;5067879;28;20048;-76
2023/11/19 10:11:26;;;;;;;6.30;3.85;;;;;;;2.06;98.91;93194.97;5081511;28;20080;-76
2023/11/19 10:13:54;;;;;;;23.30;12.13;;;;;;;1.99;100.00;93197.31;5067835;28;20056;-76
2023/11/19 10:16:21;;;;;;;4.03;3.60;;;;;;;1.97;99.68;93193.38;5067185;28;20049;-76
2023/11/19 10:18:51;;;;;;;5.20;3.33;;;;;;;2.05;99.91;93193.38;5066600;28;20433;-76
2023/11/19 10:21:19;;;;;;;7.78;5.07;;;;;;;2.22;98.48;93196.69;5067603;28;20398;-76
2023/11/19 10:23:53;;;;;;;8.93;4.70;;;;;;;2.49;98.24;93186.38;5067408;28;20044;-76
2023/11/19 10:26:21;;;;;;;17.67;11.30;;;;;;;2.52;96.15;93181.00;5072668;28;20421;-76
2023/11/19 10:28:48;;;;;;;9.38;4.70;;;;;;;2.14;97.24;93184.03;5071179;28;20463;-75
2023/11/19 10:31:17;;;;;;;8.18;4.35;;;;;;;1.87;97.34;93174.03;5072657;28;20410;-75
2023/11/19 10:33:45;;;;;;;5.75;3.67;;;;;;;2.01;97.74;93174.38;5074253;28;20041;-76
2023/11/19 10:36:13;;;;;;;11.57;5.22;;;;;;;1.80;97.47;93152.03;5071161;28;20048;-76
2023/11/19 10:38:40;;;;;;;5.75;3.65;;;;;;;2.02;96.75;93175.94;5072764;28;20044;-76
2023/11/19 10:41:07;;;;;;;4.22;2.80;;;;;;;2.06;97.60;93172.16;5071410;28;20570;-76
2023/11/19 10:43:44;;;;;;;5.55;3.17;;;;;;;2.11;96.83;93176.75;5072672;28;20044;-76
2023/11/19 10:46:12;;;;;;;4.80;3.45;;;;;;;2.33;98.03;93177.06;5071470;28;20044;-75
2023/11/19 10:48:41;;;;;;;6.28;3.40;;;;;;;2.61;97.91;93179.25;5075862;28;20641;-76
2023/11/19 10:51:10;;;;;;;6.40;4.30;;;;;;;2.89;94.10;93191.53;5072828;28;20053;-75
2023/11/19 10:53:38;;;;;;;10.65;8.27;;;;;;;2.92;93.95;93189.47;5076039;28;20040;-76
2023/11/19 10:56:11;;;;;;;6.60;3.80;;;;;;;2.85;93.46;93183.47;5074701;28;20041;-75
2023/11/19 10:58:39;;;;;;;8.48;4.35;;;;;;;3.12;91.89;93178.97;5073274;28;20068;-76
2023/11/19 11:01:13;;;;;;;8.50;4.18;;;;;;;2.85;91.52;93173.31;5072001;28;20102;-75
2023/11/19 11:03:42;;;;;;;10.50;6.20;;;;;;;2.52;91.77;93161.53;5076651;28;20445;-75
2023/11/19 11:06:10;;;;;;;9.18;6.05;;;;;;;2.60;93.30;93144.69;5071374;28;20055;-76
2023/11/19 11:08:38;;;;;;;22.48;13.90;;;;;;;2.84;92.45;93137.97;5072358;28;20201;-76
2023/11/19 11:11:06;;;;;;;6.20;4.32;;;;;;;2.74;92.93;93135.63;5073480;28;20163;-76
2023/11/19 11:13:34;;;;;;;5.82;4.00;;;;;;;3.05;93.81;93134.88;5075262;28;20136;-76
2023/11/19 11:16:01;;;;;;;11.05;4.32;;;;;;;3.10;91.50;93114.09;5078048;28;20079;-76
2023/11/19 11:18:28;;;;;;;5.10;3.55;;;;;;;3.19;91.44;93129.09;5073570;28;20151;-77
2023/11/19 11:21:02;;;;;;;7.15;4.10;;;;;;;3.36;90.56;93129.03;5072313;28;20048;-76
2023/11/19 11:24:07;;;;;;;5.97;4.03;;;;;;;3.38;90.07;93137.25;5072731;28;20569;-77
2023/11/19 11:26:46;;;;;;;;;;;;;;;3.50;90.31;93130.06;5075949;28;20040;-76
2023/11/19 11:29:25;;;;;;;26.13;14.18;;;;;;;3.26;88.37;93131.78;5071112;28;19923;-76
2023/11/19 11:32:04;;;;;;;6.50;4.13;;;;;;;3.27;89.89;93127.47;5076346;28;20422;-75
2023/11/19 11:35:11;;;;;;;5.80;4.03;;;;;;;3.46;91.11;93126.25;5074125;28;20211;-76
2023/11/19 11:37:47;;;;;;;5.47;3.80;;;;;;;3.58;90.78;93116.53;5007735;28;20519;-76